createdAt,value
2023-12-03T00:02:02.222Z,17.22
2023-12-03T00:05:05.799Z,17.43
2023-12-03T00:08:09.337Z,17.30
2023-12-03T00:11:12.642Z,17.25
2023-12-03T00:14:15.845Z,17.32
2023-12-03T00:17:19.096Z,17.36
2023-12-03T00:20:22.313Z,17.33
2023-12-03T00:23:25.410Z,17.26
2023-12-03T00:26:28.585Z,17.36
2023-12-03T00:29:31.762Z,17.24
2023-12-03T00:32:35.140Z,17.31
2023-12-03T00:35:42.455Z,17.38
2023-12-03T00:38:45.883Z,17.42
2023-12-03T00:41:49.612Z,17.50
2023-12-03T00:44:54.429Z,17.44
2023-12-03T00:47:57.802Z,17.39
2023-12-03T00:51:01.081Z,17.38
2023-12-03T00:54:04.513Z,17.35
2023-12-03T00:57:08.036Z,17.42
2023-12-03T01:00:12.054Z,17.32
2023-12-03T01:03:15.408Z,17.37
2023-12-03T01:06:18.962Z,17.30
2023-12-03T01:09:22.322Z,17.23
2023-12-03T01:12:25.631Z,17.28
2023-12-03T01:15:28.893Z,17.39
2023-12-03T01:18:34.242Z,17.41
2023-12-03T01:21:38.402Z,17.25
2023-12-03T01:24:42.005Z,17.13
2023-12-03T01:27:45.375Z,17.05
2023-12-03T01:30:48.695Z,17.03
2023-12-03T01:33:52.052Z,17.07
2023-12-03T01:36:55.242Z,17.02
2023-12-03T01:39:58.450Z,16.92
2023-12-03T01:43:04.099Z,17.04
2023-12-03T01:46:07.540Z,16.95
2023-12-03T01:49:11.002Z,16.78
2023-12-03T01:52:16.027Z,16.86
2023-12-03T01:55:19.474Z,16.73
2023-12-03T01:58:22.973Z,16.80
2023-12-03T02:01:26.322Z,16.77
2023-12-03T02:04:29.709Z,16.81
2023-12-03T02:07:32.872Z,16.73
2023-12-03T02:10:36.240Z,16.68
2023-12-03T02:13:40.790Z,16.59
2023-12-03T02:16:48.527Z,16.39
2023-12-03T02:19:53.874Z,16.41
2023-12-03T02:23:01.514Z,16.49
2023-12-03T02:26:04.971Z,16.43
2023-12-03T02:29:08.278Z,16.19
2023-12-03T02:32:11.556Z,15.98
2023-12-03T02:35:14.968Z,16.12
2023-12-03T02:38:18.300Z,16.06
2023-12-03T02:41:22.067Z,16.09
2023-12-03T02:44:25.284Z,16.23
2023-12-03T02:47:28.466Z,16.06
2023-12-03T02:50:31.751Z,16.13
2023-12-03T02:53:38.099Z,15.93
2023-12-03T02:56:41.295Z,15.95
2023-12-03T02:59:44.620Z,15.91
2023-12-03T03:02:47.915Z,15.87
2023-12-03T03:05:51.135Z,15.97
2023-12-03T03:08:54.510Z,16.09
2023-12-03T03:11:59.821Z,15.86
2023-12-03T03:15:03.065Z,15.70
2023-12-03T03:18:06.279Z,15.68
2023-12-03T03:21:11.519Z,15.46
2023-12-03T03:24:14.765Z,15.59
2023-12-03T03:27:18.134Z,15.62
2023-12-03T03:30:21.420Z,15.59
2023-12-03T03:33:25.298Z,15.49
2023-12-03T03:36:28.698Z,15.41
2023-12-03T03:39:34.076Z,15.44
2023-12-03T03:42:38.345Z,15.61
2023-12-03T03:45:41.628Z,15.52
2023-12-03T03:48:44.950Z,15.43
2023-12-03T03:51:50.272Z,15.30
2023-12-03T03:54:53.498Z,15.15
2023-12-03T03:57:56.664Z,15.21
2023-12-03T04:01:00.747Z,15.04
2023-12-03T04:04:04.155Z,14.79
2023-12-03T04:07:07.526Z,15.00
2023-12-03T04:10:10.966Z,14.91
2023-12-03T04:13:14.493Z,14.74
2023-12-03T04:16:23.905Z,14.82
2023-12-03T04:19:28.141Z,14.73
2023-12-03T04:22:31.412Z,14.78
2023-12-03T04:25:34.726Z,14.64
2023-12-03T04:28:41.102Z,14.63
2023-12-03T04:31:45.756Z,14.62
2023-12-03T04:34:48.920Z,14.64
2023-12-03T04:37:52.080Z,14.60
2023-12-03T04:40:55.256Z,14.55
2023-12-03T04:43:58.472Z,14.56
2023-12-03T04:47:01.664Z,14.48
2023-12-03T04:50:05.248Z,14.39
2023-12-03T04:53:08.558Z,14.59
2023-12-03T04:56:12.034Z,14.54
2023-12-03T04:59:15.371Z,14.59
2023-12-03T05:02:18.687Z,14.76
2023-12-03T05:05:22.150Z,14.43
2023-12-03T05:08:28.445Z,14.26
2023-12-03T05:11:31.674Z,14.35
2023-12-03T05:14:34.779Z,14.39
2023-12-03T05:17:39.682Z,14.59
2023-12-03T05:20:44.169Z,14.44
2023-12-03T05:23:47.385Z,14.64
2023-12-03T05:26:50.551Z,14.59
2023-12-03T05:29:55.027Z,14.66
2023-12-03T05:32:58.549Z,14.48
2023-12-03T05:36:01.742Z,14.33
2023-12-03T05:39:06.909Z,14.38
2023-12-03T05:42:10.134Z,14.48
2023-12-03T05:45:13.334Z,14.51
2023-12-03T05:48:17.462Z,14.45
2023-12-03T05:51:20.728Z,14.27
2023-12-03T05:54:23.984Z,14.17
2023-12-03T05:57:28.688Z,14.13
2023-12-03T06:00:31.949Z,13.98
2023-12-03T06:03:35.347Z,14.16
2023-12-03T06:06:38.784Z,14.16
2023-12-03T06:09:42.200Z,14.26
2023-12-03T06:12:45.461Z,14.09
2023-12-03T06:15:48.754Z,13.92
2023-12-03T06:18:52.223Z,13.86
2023-12-03T06:21:55.564Z,13.96
2023-12-03T06:24:58.791Z,13.87
2023-12-03T06:28:02.106Z,13.83
2023-12-03T06:31:08.366Z,14.02
2023-12-03T06:34:12.006Z,14.05
2023-12-03T06:37:15.323Z,14.13
2023-12-03T06:40:18.567Z,14.13
2023-12-03T06:43:21.970Z,14.07
2023-12-03T06:46:25.208Z,13.80
2023-12-03T06:49:28.484Z,13.82
2023-12-03T06:52:31.718Z,13.83
2023-12-03T06:55:34.972Z,13.83
2023-12-03T06:58:38.240Z,13.84
2023-12-03T07:01:41.428Z,13.77
2023-12-03T07:04:44.667Z,13.70
2023-12-03T07:07:48.262Z,13.53
2023-12-03T07:10:51.583Z,13.69
2023-12-03T07:13:56.170Z,13.64
2023-12-03T07:16:59.421Z,13.66
2023-12-03T07:20:02.667Z,13.66
2023-12-03T07:23:05.918Z,13.53
2023-12-03T07:26:14.033Z,13.59
2023-12-03T07:29:20.333Z,13.63
2023-12-03T07:32:27.409Z,13.60
2023-12-03T07:35:30.557Z,13.57
2023-12-03T07:38:33.764Z,13.66
2023-12-03T07:41:39.421Z,13.62
2023-12-03T07:44:42.743Z,13.67
2023-12-03T07:47:47.503Z,13.68
2023-12-03T07:50:51.060Z,13.47
2023-12-03T07:53:54.285Z,13.49
2023-12-03T07:56:57.455Z,13.43
2023-12-03T08:00:00.941Z,13.26
2023-12-03T08:03:05.177Z,13.18
2023-12-03T08:06:08.808Z,13.11
2023-12-03T08:09:12.043Z,13.18
2023-12-03T08:12:15.499Z,13.30
2023-12-03T08:15:18.726Z,13.31
2023-12-03T08:18:22.010Z,13.36
2023-12-03T08:21:25.191Z,13.26
2023-12-03T08:24:29.834Z,13.23
2023-12-03T08:27:33.041Z,13.14
2023-12-03T08:30:36.299Z,12.99
2023-12-03T08:33:39.513Z,12.92
2023-12-03T08:36:42.911Z,12.93
2023-12-03T08:39:46.270Z,12.81
2023-12-03T08:42:49.545Z,12.77
2023-12-03T08:45:52.783Z,12.80
2023-12-03T08:48:56.298Z,12.99
2023-12-03T08:51:59.503Z,12.49
2023-12-03T08:55:02.766Z,12.96
2023-12-03T08:58:07.313Z,12.68
2023-12-03T09:01:11.468Z,12.80
2023-12-03T09:04:14.695Z,12.70
2023-12-03T09:07:19.433Z,12.67
2023-12-03T09:10:22.725Z,12.75
2023-12-03T09:13:29.007Z,12.74
2023-12-03T09:16:32.366Z,12.67
2023-12-03T09:19:35.644Z,12.67
2023-12-03T09:22:39.911Z,12.47
2023-12-03T09:25:43.288Z,12.47
2023-12-03T09:28:52.873Z,12.25
2023-12-03T09:31:57.152Z,12.10
2023-12-03T09:35:00.495Z,12.23
2023-12-03T09:38:04.314Z,12.48
2023-12-03T09:41:10.269Z,12.22
2023-12-03T09:44:34.161Z,12.14
2023-12-03T09:47:38.848Z,11.90
2023-12-03T09:50:45.590Z,11.95
2023-12-03T09:53:49.742Z,11.99
2023-12-03T09:56:56.017Z,11.98
2023-12-03T10:00:01.124Z,12.11
2023-12-03T10:03:04.601Z,12.07
2023-12-03T10:06:08.145Z,12.15
2023-12-03T10:09:16.974Z,12.06
2023-12-03T10:12:22.798Z,11.81
2023-12-03T10:15:27.223Z,11.71
2023-12-03T10:18:30.675Z,11.57
2023-12-03T10:21:34.222Z,11.85
2023-12-03T10:24:51.458Z,11.98
2023-12-03T10:27:58.444Z,11.77
2023-12-03T10:31:01.840Z,11.83
2023-12-03T10:34:07.808Z,11.69
2023-12-03T10:37:11.308Z,11.75
2023-12-03T10:40:14.650Z,11.71
2023-12-03T10:43:17.905Z,11.66
2023-12-03T10:46:21.801Z,11.70
2023-12-03T10:49:26.237Z,11.72
2023-12-03T10:52:34.226Z,11.80
2023-12-03T10:55:37.304Z,11.69
2023-12-03T10:58:41.673Z,11.71
2023-12-03T11:01:49.758Z,11.80
2023-12-03T11:05:16.916Z,11.71
2023-12-03T11:08:24.736Z,11.43
2023-12-03T11:11:28.332Z,11.46
2023-12-03T11:14:31.953Z,11.38
2023-12-03T11:17:40.941Z,11.44
2023-12-03T11:20:44.896Z,11.39
2023-12-03T11:24:19.542Z,11.49
2023-12-03T11:27:27.021Z,11.39
2023-12-03T11:30:43.214Z,11.39
2023-12-03T11:34:02.405Z,11.41
2023-12-03T11:37:10.610Z,11.28
2023-12-03T11:40:18.299Z,11.34
2023-12-03T11:43:26.315Z,11.32
2023-12-03T11:46:30.799Z,11.33
2023-12-03T11:49:39.172Z,11.13
2023-12-03T11:52:43.713Z,11.12
2023-12-03T11:55:49.334Z,10.97
2023-12-03T11:58:55.144Z,11.17
2023-12-03T12:01:58.412Z,11.12
2023-12-03T12:05:06.579Z,11.18
2023-12-03T12:08:10.187Z,11.04
2023-12-03T12:11:13.581Z,10.98
2023-12-03T12:14:20.245Z,11.18
2023-12-03T12:17:23.808Z,10.85
2023-12-03T12:20:31.562Z,10.56
2023-12-03T12:23:34.893Z,10.53
2023-12-03T12:26:38.040Z,10.66
2023-12-03T12:29:41.172Z,10.73
2023-12-03T12:32:44.760Z,10.96
2023-12-03T12:35:51.562Z,10.80
2023-12-03T12:38:54.860Z,10.87
2023-12-03T12:41:58.468Z,10.37
2023-12-03T12:45:01.745Z,10.24
2023-12-03T12:48:05.351Z,10.17
2023-12-03T12:51:08.929Z,10.25
2023-12-03T12:54:12.376Z,10.28
2023-12-03T12:57:17.916Z,10.42
2023-12-03T13:00:21.409Z,10.49
2023-12-03T13:03:25.286Z,10.30
2023-12-03T13:06:28.739Z,10.46
2023-12-03T13:09:34.522Z,10.57
2023-12-03T13:12:37.990Z,10.49
2023-12-03T13:15:42.861Z,10.38
2023-12-03T13:18:46.188Z,10.47
2023-12-03T13:21:49.661Z,10.38
2023-12-03T13:24:55.045Z,10.31
2023-12-03T13:27:58.394Z,10.13
2023-12-03T13:31:04.741Z,10.09
2023-12-03T13:34:09.032Z,10.01
2023-12-03T13:37:12.379Z,10.08
2023-12-03T13:40:15.831Z,10.06
2023-12-03T13:43:22.588Z,10.03
2023-12-03T13:46:26.459Z,10.25
2023-12-03T13:49:30.580Z,10.18
2023-12-03T13:52:36.452Z,10.28
2023-12-03T13:55:39.712Z,10.36
2023-12-03T13:58:43.534Z,10.27
2023-12-03T14:01:46.795Z,10.47
2023-12-03T14:04:50.420Z,10.67
2023-12-03T14:07:55.176Z,10.73
2023-12-03T14:10:58.968Z,10.84
2023-12-03T14:14:02.115Z,10.84
2023-12-03T14:17:06.222Z,10.93
2023-12-03T14:20:12.994Z,11.11
2023-12-03T14:23:16.218Z,11.24
2023-12-03T14:26:24.593Z,11.49
2023-12-03T14:29:28.705Z,11.46
2023-12-03T14:32:32.568Z,11.73
2023-12-03T14:35:35.957Z,11.79
2023-12-03T14:38:42.218Z,11.97
2023-12-03T14:41:48.010Z,12.17
2023-12-03T14:44:53.284Z,12.40
2023-12-03T14:48:06.176Z,12.76
2023-12-03T14:51:20.237Z,12.95
2023-12-03T14:54:23.513Z,12.93
2023-12-03T14:57:30.097Z,13.15
2023-12-03T15:00:37.698Z,13.25
2023-12-03T15:03:41.688Z,13.27
2023-12-03T15:06:48.089Z,13.59
2023-12-03T15:09:54.502Z,13.64
2023-12-03T15:12:58.705Z,14.08
2023-12-03T15:16:07.766Z,14.02
2023-12-03T15:19:11.139Z,14.23
2023-12-03T15:22:15.939Z,14.09
2023-12-03T15:25:19.758Z,14.11
2023-12-03T15:28:23.105Z,14.19
2023-12-03T15:31:26.275Z,14.23
2023-12-03T15:34:30.430Z,14.38
2023-12-03T15:37:34.000Z,14.49
2023-12-03T15:40:37.250Z,14.48
2023-12-03T15:43:47.208Z,15.02
2023-12-03T15:46:51.526Z,14.72
2023-12-03T15:49:57.759Z,15.11
2023-12-03T15:53:00.948Z,15.22
2023-12-03T15:56:04.556Z,15.02
2023-12-03T15:59:10.523Z,15.19
2023-12-03T16:02:13.763Z,15.49
2023-12-03T16:05:17.099Z,15.65
2023-12-03T16:08:20.342Z,15.51
2023-12-03T16:11:23.960Z,15.58
2023-12-03T16:14:30.499Z,15.81
2023-12-03T16:17:35.415Z,16.28
2023-12-03T16:20:39.100Z,16.14
2023-12-03T16:23:42.193Z,16.13
2023-12-03T16:26:45.398Z,16.21
2023-12-03T16:29:48.779Z,16.36
2023-12-03T16:32:52.182Z,16.52
2023-12-03T16:35:55.756Z,16.62
2023-12-03T16:38:59.306Z,16.71
2023-12-03T16:42:02.566Z,17.23
2023-12-03T16:45:06.284Z,17.31
2023-12-03T16:48:10.117Z,17.20
2023-12-03T16:50:58.644Z,17.21
2023-12-03T16:54:02.128Z,17.05
2023-12-03T16:57:05.845Z,17.46
2023-12-03T17:00:09.603Z,17.60
2023-12-03T17:03:13.028Z,17.65
2023-12-03T17:06:16.268Z,17.59
2023-12-03T17:09:20.049Z,17.63
2023-12-03T17:12:23.299Z,17.90
2023-12-03T17:15:27.656Z,17.94
2023-12-03T17:18:30.857Z,17.70
2023-12-03T17:21:35.035Z,18.01
2023-12-03T17:24:40.866Z,17.87
2023-12-03T17:27:44.183Z,18.23
2023-12-03T17:30:49.929Z,18.38
2023-12-03T17:33:53.403Z,18.43
2023-12-03T17:36:56.728Z,18.65
2023-12-03T17:40:01.888Z,18.82
2023-12-03T17:43:05.162Z,18.66
2023-12-03T17:46:08.716Z,18.75
2023-12-03T17:49:12.290Z,18.86
2023-12-03T17:52:15.612Z,19.40
2023-12-03T17:55:18.912Z,19.67
2023-12-03T17:58:22.208Z,19.46
2023-12-03T18:01:25.837Z,19.40
2023-12-03T18:04:31.443Z,19.70
2023-12-03T18:07:35.154Z,19.71
2023-12-03T18:10:38.384Z,19.67
2023-12-03T18:13:41.610Z,20.13
2023-12-03T18:16:45.331Z,20.26
2023-12-03T18:19:48.720Z,20.48
2023-12-03T18:22:52.149Z,20.56
2023-12-03T18:25:55.369Z,20.42
2023-12-03T18:28:58.702Z,20.42
2023-12-03T18:32:02.098Z,21.07
2023-12-03T18:35:06.204Z,21.01
2023-12-03T18:38:09.429Z,20.90
2023-12-03T18:41:15.325Z,21.03
2023-12-03T18:44:18.568Z,21.24
2023-12-03T18:47:21.847Z,21.08
2023-12-03T18:50:25.137Z,20.92
2023-12-03T18:53:28.466Z,20.96
2023-12-03T18:56:31.766Z,20.98
2023-12-03T18:59:35.657Z,21.16
2023-12-03T19:02:38.853Z,21.05
2023-12-03T19:05:42.159Z,21.00
2023-12-03T19:08:45.410Z,20.71
2023-12-03T19:11:48.634Z,21.00
2023-12-03T19:14:51.855Z,21.23
2023-12-03T19:17:55.195Z,21.44
2023-12-03T19:20:58.359Z,21.26
2023-12-03T19:24:02.757Z,21.14
2023-12-03T19:27:06.225Z,21.23
2023-12-03T19:30:10.498Z,21.31
2023-12-03T19:33:15.063Z,21.55
2023-12-03T19:36:18.352Z,21.64
2023-12-03T19:39:21.798Z,21.52
2023-12-03T19:42:25.017Z,21.38
2023-12-03T19:45:28.363Z,21.53
2023-12-03T19:48:31.915Z,21.56
2023-12-03T19:51:35.218Z,21.43
2023-12-03T19:54:38.495Z,21.45
2023-12-03T19:57:43.125Z,21.67
2023-12-03T20:00:46.471Z,21.61
2023-12-03T20:03:49.896Z,21.64
2023-12-03T20:06:54.290Z,21.42
2023-12-03T20:09:57.742Z,21.62
2023-12-03T20:13:02.441Z,22.07
2023-12-03T20:16:06.406Z,21.78
2023-12-03T20:19:09.788Z,21.65
2023-12-03T20:22:14.392Z,21.34
2023-12-03T20:25:17.684Z,21.41
2023-12-03T20:28:21.583Z,21.26
2023-12-03T20:31:26.238Z,21.44
2023-12-03T20:34:30.523Z,21.77
2023-12-03T20:37:35.149Z,22.16
2023-12-03T20:40:38.328Z,21.73
2023-12-03T20:43:43.626Z,21.54
2023-12-03T20:46:46.886Z,21.83
2023-12-03T20:49:50.129Z,21.95
2023-12-03T20:52:53.365Z,22.18
2023-12-03T20:55:56.644Z,21.83
2023-12-03T20:58:59.965Z,21.66
2023-12-03T21:02:04.022Z,21.77
2023-12-03T21:05:07.697Z,21.73
2023-12-03T21:08:10.915Z,21.60
2023-12-03T21:11:20.049Z,21.54
2023-12-03T21:14:23.216Z,21.54
2023-12-03T21:17:29.343Z,21.49
2023-12-03T21:20:33.517Z,21.66
2023-12-03T21:23:36.688Z,21.61
2023-12-03T21:26:40.059Z,21.69
2023-12-03T21:29:43.329Z,21.74
2023-12-03T21:32:46.720Z,21.59
2023-12-03T21:35:50.093Z,21.34
2023-12-03T21:38:56.305Z,21.24
2023-12-03T21:41:59.566Z,21.21
2023-12-03T21:45:02.981Z,21.00
2023-12-03T21:48:06.583Z,20.55
2023-12-03T21:51:12.368Z,20.28
2023-12-03T21:54:15.565Z,19.93
2023-12-03T21:57:18.741Z,19.95
2023-12-03T22:00:21.909Z,19.84
2023-12-03T22:03:25.111Z,19.67
2023-12-03T22:06:28.318Z,19.62
2023-12-03T22:09:34.145Z,19.50
2023-12-03T22:12:37.410Z,19.36
2023-12-03T22:15:40.714Z,19.31
2023-12-03T22:18:44.038Z,19.26
2023-12-03T22:21:47.442Z,19.17
2023-12-03T22:24:50.686Z,19.06
2023-12-03T22:27:53.873Z,18.92
2023-12-03T22:30:58.304Z,18.87
2023-12-03T22:34:01.754Z,18.74
2023-12-03T22:37:05.466Z,18.56
2023-12-03T22:40:09.458Z,18.47
2023-12-03T22:43:12.782Z,18.42
2023-12-03T22:46:16.368Z,18.14
2023-12-03T22:49:19.853Z,18.08
2023-12-03T22:52:23.759Z,17.88
2023-12-03T22:55:26.893Z,17.84
2023-12-03T22:58:30.808Z,18.00
2023-12-03T23:01:36.958Z,17.48
2023-12-03T23:04:40.360Z,17.21
2023-12-03T23:07:43.734Z,17.14
2023-12-03T23:10:49.513Z,16.95
2023-12-03T23:13:52.960Z,16.78
2023-12-03T23:16:58.822Z,16.59
2023-12-03T23:20:02.037Z,16.35
2023-12-03T23:23:05.379Z,16.21
2023-12-03T23:26:08.927Z,15.96
2023-12-03T23:29:14.327Z,15.82
2023-12-03T23:32:17.579Z,15.72
2023-12-03T23:35:22.886Z,15.93
2023-12-03T23:38:26.110Z,15.83
2023-12-03T23:41:29.370Z,15.75
2023-12-03T23:44:33.337Z,15.80
2023-12-03T23:47:36.613Z,15.65
2023-12-03T23:50:41.652Z,15.58
2023-12-03T23:53:45.483Z,15.39
2023-12-03T23:56:51.253Z,15.01
2023-12-03T23:59:55.866Z,15.03
